createdAt,value
2018-05-09T00:00:09.159Z,42.54
2018-05-09T00:02:35.472Z,42.65
2018-05-09T00:05:01.755Z,42.77
2018-05-09T00:07:28.057Z,42.39
2018-05-09T00:09:54.502Z,42.79
2018-05-09T00:12:21.038Z,42.64
2018-05-09T00:14:47.292Z,42.33
2018-05-09T00:17:13.646Z,42.69
2018-05-09T00:19:39.975Z,42.71
2018-05-09T00:22:06.445Z,42.52
2018-05-09T00:24:32.674Z,42.60
2018-05-09T00:26:58.910Z,42.47
2018-05-09T00:29:25.126Z,42.38
2018-05-09T00:31:51.358Z,42.29
2018-05-09T00:34:17.569Z,42.31
2018-05-09T00:36:43.822Z,42.84
2018-05-09T00:39:10.098Z,43.38
2018-05-09T00:41:36.316Z,42.97
2018-05-09T00:44:02.549Z,42.84
2018-05-09T00:46:28.778Z,42.68
2018-05-09T00:48:55.009Z,42.59
2018-05-09T00:51:21.230Z,43.16
2018-05-09T00:53:47.502Z,43.12
2018-05-09T00:56:13.799Z,42.85
2018-05-09T00:58:40.041Z,43.18
2018-05-09T01:01:06.278Z,43.02
2018-05-09T01:03:32.498Z,43.65
2018-05-09T01:05:58.741Z,43.67
2018-05-09T01:08:25.007Z,43.85
2018-05-09T01:10:51.241Z,43.64
2018-05-09T01:13:17.450Z,43.69
2018-05-09T01:15:43.704Z,43.63
2018-05-09T01:18:09.934Z,43.34
2018-05-09T01:20:36.198Z,43.60
2018-05-09T01:23:02.434Z,43.82
2018-05-09T01:25:28.655Z,43.90
2018-05-09T01:27:54.898Z,43.99
2018-05-09T01:30:21.130Z,44.29
2018-05-09T01:32:47.366Z,44.35
2018-05-09T01:35:13.606Z,45.32
2018-05-09T01:37:39.850Z,45.34
2018-05-09T01:40:06.086Z,45.24
2018-05-09T01:42:32.338Z,45.30
2018-05-09T01:44:58.548Z,45.35
2018-05-09T01:47:24.757Z,45.47
2018-05-09T01:49:51.030Z,45.66
2018-05-09T01:52:17.242Z,45.61
2018-05-09T01:54:43.478Z,45.69
2018-05-09T01:57:09.694Z,45.63
2018-05-09T01:59:35.937Z,45.85
2018-05-09T02:02:02.159Z,46.61
2018-05-09T02:04:28.410Z,46.75
2018-05-09T02:06:54.635Z,46.77
2018-05-09T02:09:20.850Z,46.93
2018-05-09T02:11:47.086Z,47.23
2018-05-09T02:14:13.306Z,47.18
2018-05-09T02:16:39.550Z,47.47
2018-05-09T02:19:05.782Z,47.39
2018-05-09T02:21:32.023Z,47.40
2018-05-09T02:23:58.291Z,47.54
2018-05-09T02:26:24.529Z,47.84
2018-05-09T02:28:50.741Z,47.94
2018-05-09T02:31:17.132Z,47.73
2018-05-09T02:33:43.274Z,47.72
2018-05-09T02:36:09.490Z,47.57
2018-05-09T02:38:35.726Z,47.59
2018-05-09T02:41:01.939Z,48.10
2018-05-09T02:43:28.183Z,48.23
2018-05-09T02:45:54.393Z,48.12
2018-05-09T02:48:20.651Z,48.29
2018-05-09T02:50:46.874Z,48.62
2018-05-09T02:53:13.086Z,48.27
2018-05-09T02:55:39.322Z,48.75
2018-05-09T02:58:05.541Z,48.93
2018-05-09T03:00:31.778Z,49.02
2018-05-09T03:02:57.992Z,49.14
2018-05-09T03:05:24.263Z,49.03
2018-05-09T03:07:50.567Z,48.59
2018-05-09T03:10:16.815Z,48.89
2018-05-09T03:12:43.030Z,49.16
2018-05-09T03:15:09.253Z,49.11
2018-05-09T03:17:35.515Z,49.60
2018-05-09T03:20:01.750Z,49.90
2018-05-09T03:22:27.990Z,49.80
2018-05-09T03:24:54.206Z,50.17
2018-05-09T03:27:20.442Z,50.49
2018-05-09T03:29:46.694Z,50.24
2018-05-09T03:32:12.942Z,50.16
2018-05-09T03:34:39.178Z,50.27
2018-05-09T03:37:05.392Z,50.29
2018-05-09T03:39:31.630Z,50.51
2018-05-09T03:41:57.846Z,50.41
2018-05-09T03:44:24.089Z,50.25
2018-05-09T03:46:50.302Z,50.38
2018-05-09T03:49:16.544Z,50.45
2018-05-09T03:51:42.757Z,50.44
2018-05-09T03:54:09.097Z,50.45
2018-05-09T03:56:35.417Z,50.81
2018-05-09T03:59:01.639Z,50.51
2018-05-09T04:01:27.922Z,50.49
2018-05-09T04:04:06.482Z,50.88
2018-05-09T04:06:45.126Z,50.98
2018-05-09T04:09:23.694Z,51.02
2018-05-09T04:11:49.910Z,50.79
2018-05-09T04:14:16.130Z,51.10
2018-05-09T04:16:43.512Z,51.15
2018-05-09T04:19:09.734Z,51.09
2018-05-09T04:21:35.990Z,51.14
2018-05-09T04:24:02.225Z,51.40
2018-05-09T04:26:28.481Z,51.23
2018-05-09T04:28:54.725Z,51.47
2018-05-09T04:31:20.943Z,51.27
2018-05-09T04:33:47.206Z,51.61
2018-05-09T04:36:13.424Z,51.78
2018-05-09T04:38:39.666Z,51.66
2018-05-09T04:41:05.907Z,52.21
2018-05-09T04:43:32.167Z,52.13
2018-05-09T04:45:58.387Z,51.93
2018-05-09T04:48:24.586Z,51.57
2018-05-09T04:50:50.834Z,51.28
2018-05-09T04:53:17.063Z,51.13
2018-05-09T04:55:43.363Z,51.05
2018-05-09T04:58:09.567Z,50.83
2018-05-09T05:00:35.839Z,51.03
2018-05-09T05:03:02.119Z,51.62
2018-05-09T05:05:28.419Z,51.48
2018-05-09T05:07:54.635Z,51.69
2018-05-09T05:10:20.855Z,51.66
2018-05-09T05:12:47.099Z,51.40
2018-05-09T05:15:13.310Z,51.25
2018-05-09T05:17:39.558Z,51.31
2018-05-09T05:20:05.769Z,50.30
2018-05-09T05:22:32.022Z,49.81
2018-05-09T05:24:58.238Z,48.75
2018-05-09T05:27:24.491Z,48.35
2018-05-09T05:29:50.707Z,48.00
2018-05-09T05:32:16.950Z,47.68
2018-05-09T05:34:43.186Z,47.67
2018-05-09T05:37:09.411Z,46.71
2018-05-09T05:39:35.675Z,47.02
2018-05-09T05:42:01.886Z,47.30
2018-05-09T05:44:28.130Z,47.78
2018-05-09T05:46:54.350Z,47.09
2018-05-09T05:49:20.639Z,48.00
2018-05-09T05:51:46.868Z,47.82
2018-05-09T05:54:13.108Z,48.08
2018-05-09T05:56:39.351Z,47.95
2018-05-09T05:59:05.574Z,48.14
2018-05-09T06:01:31.822Z,48.30
2018-05-09T06:03:58.042Z,48.76
2018-05-09T06:06:24.290Z,49.39
2018-05-09T06:08:50.518Z,48.91
2018-05-09T06:11:16.791Z,48.12
2018-05-09T06:13:43.027Z,47.67
2018-05-09T06:16:09.288Z,47.44
2018-05-09T06:18:35.558Z,47.01
2018-05-09T06:21:01.778Z,47.44
2018-05-09T06:23:28.030Z,45.74
2018-05-09T06:25:54.252Z,45.20
2018-05-09T06:28:20.501Z,44.04
2018-05-09T06:30:46.731Z,43.64
2018-05-09T06:33:12.994Z,43.48
2018-05-09T06:35:39.231Z,42.77
2018-05-09T06:38:05.458Z,42.07
2018-05-09T06:40:31.725Z,41.82
2018-05-09T06:42:58.064Z,42.27
2018-05-09T06:45:24.242Z,40.96
2018-05-09T06:47:50.466Z,40.79
2018-05-09T06:50:16.722Z,40.39
2018-05-09T06:52:42.946Z,40.64
2018-05-09T06:55:09.202Z,39.87
2018-05-09T06:57:35.430Z,39.87
2018-05-09T07:00:01.729Z,40.41
2018-05-09T07:02:27.922Z,39.48
2018-05-09T07:04:54.149Z,38.85
2018-05-09T07:07:20.398Z,38.67
2018-05-09T07:09:46.623Z,38.85
2018-05-09T07:12:12.873Z,38.40
2018-05-09T07:14:39.102Z,38.84
2018-05-09T07:17:05.362Z,38.46
2018-05-09T07:19:31.626Z,37.97
2018-05-09T07:21:57.846Z,38.17
2018-05-09T07:24:24.082Z,37.42
2018-05-09T07:26:50.299Z,37.36
2018-05-09T07:29:16.545Z,36.91
2018-05-09T07:31:42.758Z,36.40
2018-05-09T07:34:09.003Z,36.66
2018-05-09T07:36:35.210Z,36.26
2018-05-09T07:39:01.435Z,36.02
2018-05-09T07:41:27.683Z,35.45
2018-05-09T07:43:53.899Z,35.44
2018-05-09T07:46:20.141Z,35.31
2018-05-09T07:48:46.395Z,34.56
2018-05-09T07:51:12.647Z,35.22
2018-05-09T07:53:38.871Z,34.73
2018-05-09T07:56:05.118Z,34.60
2018-05-09T07:58:31.335Z,34.79
2018-05-09T08:00:57.570Z,33.50
2018-05-09T08:03:23.814Z,33.87
2018-05-09T08:05:50.027Z,33.98
2018-05-09T08:08:16.273Z,33.62
2018-05-09T08:10:42.490Z,33.32
2018-05-09T08:13:08.730Z,33.12
2018-05-09T08:15:34.980Z,32.65
2018-05-09T08:18:01.231Z,32.41
2018-05-09T08:20:27.450Z,31.97
2018-05-09T08:22:53.673Z,31.05
2018-05-09T08:25:19.919Z,31.19
2018-05-09T08:27:46.183Z,30.70
2018-05-09T08:30:12.462Z,30.42
2018-05-09T08:32:38.700Z,29.52
2018-05-09T08:35:04.943Z,28.91
2018-05-09T08:37:31.166Z,28.31
2018-05-09T08:39:57.418Z,27.13
2018-05-09T08:42:23.651Z,26.97
2018-05-09T08:44:49.874Z,27.54
2018-05-09T08:47:16.118Z,26.32
2018-05-09T08:49:42.347Z,25.81
2018-05-09T08:52:08.606Z,26.21
2018-05-09T08:54:34.847Z,27.11
2018-05-09T08:57:01.119Z,27.61
2018-05-09T08:59:27.347Z,28.49
2018-05-09T09:01:53.594Z,29.33
2018-05-09T09:04:19.865Z,29.39
2018-05-09T09:06:46.059Z,29.54
2018-05-09T09:09:12.318Z,29.93
2018-05-09T09:11:38.579Z,29.77
2018-05-09T09:14:04.827Z,30.43
2018-05-09T09:16:31.055Z,30.67
2018-05-09T09:18:57.315Z,30.10
2018-05-09T09:21:23.543Z,30.35
2018-05-09T09:23:49.799Z,29.63
2018-05-09T09:26:16.026Z,29.50
2018-05-09T09:28:42.251Z,29.57
2018-05-09T09:31:08.505Z,29.13
2018-05-09T09:33:34.755Z,27.49
2018-05-09T09:36:01.006Z,26.59
2018-05-09T09:38:27.232Z,26.81
2018-05-09T09:40:53.490Z,28.21
2018-05-09T09:43:19.715Z,27.54
2018-05-09T09:45:45.971Z,27.21
2018-05-09T09:48:12.210Z,27.43
2018-05-09T09:50:38.461Z,26.60
2018-05-09T09:53:04.718Z,24.82
2018-05-09T09:55:30.951Z,24.24
2018-05-09T09:57:57.225Z,24.67
2018-05-09T10:00:23.490Z,26.72
2018-05-09T10:02:49.750Z,26.87
2018-05-09T10:05:15.990Z,26.25
2018-05-09T10:07:42.254Z,25.94
2018-05-09T10:10:08.511Z,25.91
2018-05-09T10:12:34.742Z,26.14
2018-05-09T10:15:00.999Z,25.12
2018-05-09T10:17:27.235Z,23.98
2018-05-09T10:19:53.482Z,23.92
2018-05-09T10:22:19.702Z,22.52
2018-05-09T10:24:45.959Z,24.56
2018-05-09T10:27:12.177Z,25.46
2018-05-09T10:29:38.440Z,26.49
2018-05-09T10:32:04.690Z,26.49
2018-05-09T10:34:30.977Z,26.94
2018-05-09T10:36:57.226Z,27.72
2018-05-09T10:39:23.451Z,27.27
2018-05-09T10:41:49.707Z,27.53
2018-05-09T10:44:15.931Z,26.80
2018-05-09T10:46:42.178Z,25.65
2018-05-09T10:49:08.411Z,24.95
2018-05-09T10:51:34.671Z,24.05
2018-05-09T10:54:00.907Z,23.26
2018-05-09T10:56:27.126Z,22.03
2018-05-09T10:58:53.366Z,21.71
2018-05-09T11:01:19.587Z,21.39
2018-05-09T11:03:45.847Z,21.70
2018-05-09T11:06:12.086Z,20.64
2018-05-09T11:08:38.341Z,19.93
2018-05-09T11:11:04.594Z,20.36
2018-05-09T11:13:30.875Z,19.75
2018-05-09T11:15:57.134Z,20.29
2018-05-09T11:18:23.357Z,20.15
2018-05-09T11:20:49.594Z,21.77
2018-05-09T11:23:15.818Z,22.69
2018-05-09T11:25:42.053Z,23.05
2018-05-09T11:28:08.270Z,22.00
2018-05-09T11:30:34.526Z,21.43
2018-05-09T11:33:00.746Z,20.79
2018-05-09T11:35:26.989Z,20.10
2018-05-09T11:37:53.216Z,19.69
2018-05-09T11:40:19.434Z,20.25
2018-05-09T11:42:45.675Z,20.48
2018-05-09T11:45:11.915Z,21.79
2018-05-09T11:47:38.162Z,23.91
2018-05-09T11:50:04.398Z,24.67
2018-05-09T11:52:30.643Z,25.47
2018-05-09T11:54:56.867Z,25.75
2018-05-09T11:57:23.126Z,24.40
2018-05-09T11:59:49.360Z,23.45
2018-05-09T12:02:15.612Z,21.52
2018-05-09T12:04:41.882Z,20.11
2018-05-09T12:07:08.106Z,21.36
2018-05-09T12:09:34.342Z,22.01
2018-05-09T12:12:00.571Z,23.49
2018-05-09T12:14:26.814Z,23.93
2018-05-09T12:16:53.050Z,23.79
2018-05-09T12:19:19.299Z,21.76
2018-05-09T12:21:45.531Z,23.32
2018-05-09T12:24:11.754Z,23.63
2018-05-09T12:26:38.011Z,24.76
2018-05-09T12:29:04.246Z,26.01
2018-05-09T12:31:30.503Z,26.45
2018-05-09T12:33:56.738Z,25.35
2018-05-09T12:36:23.048Z,26.77
2018-05-09T12:38:49.279Z,27.24
2018-05-09T12:41:15.562Z,27.30
2018-05-09T12:43:41.782Z,27.60
2018-05-09T12:46:08.025Z,24.15
2018-05-09T12:48:34.340Z,21.42
2018-05-09T12:51:00.515Z,20.29
2018-05-09T12:53:26.756Z,19.63
2018-05-09T12:55:52.980Z,17.98
2018-05-09T12:58:19.231Z,19.78
2018-05-09T13:00:45.471Z,22.05
2018-05-09T13:03:11.727Z,22.88
2018-05-09T13:05:37.971Z,23.82
2018-05-09T13:08:04.193Z,23.08
2018-05-09T13:10:30.463Z,20.63
2018-05-09T13:12:56.711Z,19.31
2018-05-09T13:15:22.994Z,19.48
2018-05-09T13:17:49.210Z,17.87
2018-05-09T13:20:15.435Z,17.14
2018-05-09T13:22:41.670Z,16.16
2018-05-09T13:25:07.907Z,16.06
2018-05-09T13:27:34.150Z,15.39
2018-05-09T13:30:00.366Z,15.09
2018-05-09T13:32:26.610Z,15.66
2018-05-09T13:34:52.927Z,15.86
2018-05-09T13:37:19.083Z,15.86
2018-05-09T13:39:45.322Z,18.02
2018-05-09T13:42:11.540Z,20.08
2018-05-09T13:44:37.786Z,19.57
2018-05-09T13:47:04.011Z,17.87
2018-05-09T13:49:30.311Z,18.23
2018-05-09T13:51:56.539Z,18.82
2018-05-09T13:54:22.790Z,20.19
2018-05-09T13:56:49.006Z,19.35
2018-05-09T13:59:15.245Z,20.74
2018-05-09T14:01:41.482Z,19.87
2018-05-09T14:04:07.696Z,17.75
2018-05-09T14:06:33.935Z,16.79
2018-05-09T14:09:00.174Z,17.92
2018-05-09T14:11:26.419Z,16.72
2018-05-09T14:13:52.639Z,16.48
2018-05-09T14:16:18.981Z,16.17
2018-05-09T14:18:45.242Z,15.60
2018-05-09T14:21:11.458Z,14.76
2018-05-09T14:23:37.706Z,14.73
2018-05-09T14:26:03.946Z,14.60
2018-05-09T14:28:30.190Z,14.88
2018-05-09T14:30:56.406Z,16.49
2018-05-09T14:33:22.651Z,18.30
2018-05-09T14:35:48.870Z,16.94
2018-05-09T14:38:15.124Z,17.20
2018-05-09T14:40:41.420Z,19.10
2018-05-09T14:43:07.602Z,17.94
2018-05-09T14:45:33.835Z,20.01
2018-05-09T14:48:00.054Z,19.49
2018-05-09T14:50:26.298Z,17.65
2018-05-09T14:52:52.554Z,17.39
2018-05-09T14:55:19.037Z,16.94
2018-05-09T14:57:45.299Z,16.13
2018-05-09T15:00:11.603Z,15.94
2018-05-09T15:02:37.795Z,16.16
2018-05-09T15:05:04.078Z,16.33
2018-05-09T15:07:30.436Z,16.53
2018-05-09T15:09:56.646Z,17.24
2018-05-09T15:12:22.874Z,17.60
2018-05-09T15:14:49.086Z,18.53
2018-05-09T15:17:16.579Z,18.79
2018-05-09T15:19:42.915Z,18.44
2018-05-09T15:22:09.195Z,18.72
2018-05-09T15:24:35.410Z,18.55
2018-05-09T15:27:01.758Z,19.47
2018-05-09T15:29:28.046Z,20.62
2018-05-09T15:31:54.322Z,21.68
2018-05-09T15:34:20.586Z,23.09
2018-05-09T15:36:46.934Z,24.48
2018-05-09T15:39:13.255Z,25.16
2018-05-09T15:41:39.481Z,25.92
2018-05-09T15:44:06.254Z,27.07
2018-05-09T15:46:32.514Z,27.77
2018-05-09T15:48:59.126Z,27.94
2018-05-09T15:51:25.427Z,28.51
2018-05-09T15:53:51.794Z,28.96
2018-05-09T15:56:19.061Z,29.38
2018-05-09T15:58:45.311Z,29.27
2018-05-09T16:01:11.768Z,29.52
2018-05-09T16:03:37.987Z,29.86
2018-05-09T16:06:04.305Z,29.80
2018-05-09T16:08:30.567Z,30.12
2018-05-09T16:10:56.900Z,30.21
2018-05-09T16:13:23.154Z,30.39
2018-05-09T16:15:49.526Z,30.85
2018-05-09T16:18:15.774Z,30.92
2018-05-09T16:20:42.254Z,30.83
2018-05-09T16:23:08.511Z,31.05
2018-05-09T16:25:35.899Z,31.26
2018-05-09T16:28:02.217Z,31.51
2018-05-09T16:30:28.462Z,31.58
2018-05-09T16:32:55.050Z,31.14
2018-05-09T16:35:21.411Z,31.23
2018-05-09T16:37:47.660Z,31.67
2018-05-09T16:40:14.010Z,31.50
2018-05-09T16:42:40.322Z,31.50
2018-05-09T16:45:06.591Z,31.85
2018-05-09T16:47:33.043Z,32.27
2018-05-09T16:49:59.500Z,32.63
2018-05-09T16:52:26.045Z,33.09
2018-05-09T16:54:52.262Z,33.51
2018-05-09T16:57:18.763Z,33.69
2018-05-09T16:59:45.140Z,33.83
2018-05-09T17:02:11.603Z,34.07
2018-05-09T17:04:38.313Z,34.58
2018-05-09T17:07:04.584Z,34.93
2018-05-09T17:09:30.839Z,35.32
2018-05-09T17:11:57.124Z,35.76
2018-05-09T17:14:23.736Z,36.64
2018-05-09T17:16:50.071Z,37.04
2018-05-09T17:19:16.612Z,37.70
2018-05-09T17:22:01.213Z,41.29
2018-05-09T17:24:27.503Z,43.65
2018-05-09T17:26:53.814Z,44.29
2018-05-09T17:29:20.063Z,45.15
2018-05-09T17:31:46.330Z,44.69
2018-05-09T17:34:12.598Z,44.35
2018-05-09T17:36:38.867Z,46.90
2018-05-09T17:39:05.122Z,47.52
2018-05-09T17:41:31.375Z,48.75
2018-05-09T17:43:57.695Z,49.21
2018-05-09T17:46:23.946Z,49.75
2018-05-09T17:48:50.296Z,49.80
2018-05-09T17:51:16.547Z,49.24
2018-05-09T17:53:42.791Z,49.63
2018-05-09T17:56:09.324Z,50.08
2018-05-09T17:58:35.703Z,49.54
2018-05-09T18:01:01.931Z,49.60
2018-05-09T18:03:28.253Z,48.48
2018-05-09T18:05:54.519Z,47.78
2018-05-09T18:08:20.871Z,47.59
2018-05-09T18:10:47.130Z,48.53
2018-05-09T18:13:13.398Z,48.49
2018-05-09T18:15:39.651Z,48.92
2018-05-09T18:18:05.971Z,49.22
2018-05-09T18:20:32.238Z,49.75
2018-05-09T18:22:58.563Z,49.84
2018-05-09T18:25:24.810Z,50.20
2018-05-09T18:27:51.142Z,51.63
2018-05-09T18:30:17.406Z,52.19
2018-05-09T18:32:43.719Z,52.28
2018-05-09T18:35:09.966Z,51.92
2018-05-09T18:37:36.229Z,51.56
2018-05-09T18:40:02.919Z,51.47
2018-05-09T18:42:29.303Z,50.82
2018-05-09T18:44:55.551Z,50.90
2018-05-09T18:47:21.835Z,50.30
2018-05-09T18:49:48.086Z,50.12
2018-05-09T18:52:14.490Z,50.60
2018-05-09T18:54:40.731Z,50.47
2018-05-09T18:57:07.027Z,50.60
2018-05-09T18:59:33.287Z,51.05
2018-05-09T19:01:59.559Z,51.01
2018-05-09T19:04:25.778Z,50.62
2018-05-09T19:06:52.033Z,51.66
2018-05-09T19:09:18.251Z,51.63
2018-05-09T19:11:44.582Z,52.07
2018-05-09T19:14:10.915Z,52.23
2018-05-09T19:16:37.183Z,51.75
2018-05-09T19:19:03.419Z,51.61
2018-05-09T19:21:29.691Z,52.30
2018-05-09T19:23:55.956Z,52.74
2018-05-09T19:26:22.245Z,53.20
2018-05-09T19:28:48.546Z,53.58
2018-05-09T19:31:14.814Z,53.77
2018-05-09T19:33:41.153Z,53.91
2018-05-09T19:36:07.465Z,54.30
2018-05-09T19:38:33.816Z,54.13
2018-05-09T19:41:00.136Z,54.40
2018-05-09T19:43:26.527Z,54.35
2018-05-09T19:45:52.917Z,54.50
2018-05-09T19:48:19.318Z,54.42
2018-05-09T19:50:45.892Z,54.90
2018-05-09T19:53:12.184Z,54.16
2018-05-09T19:55:38.587Z,54.68
2018-05-09T19:58:04.923Z,55.08
2018-05-09T20:00:31.220Z,55.07
2018-05-09T20:02:57.627Z,54.65
2018-05-09T20:05:23.906Z,54.85
2018-05-09T20:07:50.168Z,54.84
2018-05-09T20:10:16.398Z,54.44
2018-05-09T20:12:42.722Z,54.01
2018-05-09T20:15:08.956Z,55.04
2018-05-09T20:17:35.193Z,56.43
2018-05-09T20:20:01.491Z,55.62
2018-05-09T20:22:27.728Z,55.18
2018-05-09T20:24:54.098Z,55.52
2018-05-09T20:27:20.359Z,55.44
2018-05-09T20:29:46.667Z,55.38
2018-05-09T20:32:24.981Z,55.57
2018-05-09T20:34:51.271Z,55.48
2018-05-09T20:37:17.547Z,55.37
2018-05-09T20:39:43.774Z,55.47
2018-05-09T20:42:10.063Z,55.38
2018-05-09T20:44:36.326Z,55.49
2018-05-09T20:47:02.618Z,55.61
2018-05-09T20:49:28.922Z,55.65
2018-05-09T20:51:55.304Z,55.51
2018-05-09T20:54:21.567Z,55.75
2018-05-09T20:56:47.896Z,56.10
2018-05-09T20:59:14.165Z,56.43
2018-05-09T21:01:48.112Z,56.51
2018-05-09T21:04:14.462Z,56.58
2018-05-09T21:06:40.728Z,56.56
2018-05-09T21:09:07.161Z,56.68
2018-05-09T21:11:33.547Z,56.72
2018-05-09T21:13:59.903Z,56.82
2018-05-09T21:16:26.146Z,56.98
2018-05-09T21:18:52.498Z,57.32
2018-05-09T21:21:18.803Z,57.22
2018-05-09T21:23:45.086Z,57.21
2018-05-09T21:26:11.303Z,57.34
2018-05-09T21:28:37.564Z,57.57
2018-05-09T21:31:03.839Z,57.42
2018-05-09T21:33:30.234Z,57.58
2018-05-09T21:35:56.881Z,57.38
2018-05-09T21:38:23.110Z,57.43
2018-05-09T21:40:49.462Z,57.36
2018-05-09T21:43:15.705Z,57.45
2018-05-09T21:45:41.965Z,57.69
2018-05-09T21:48:08.217Z,57.67
2018-05-09T21:50:34.434Z,57.80
2018-05-09T21:53:00.766Z,58.10
2018-05-09T21:55:27.012Z,58.49
2018-05-09T21:57:53.258Z,58.37
2018-05-09T22:00:19.523Z,58.26
2018-05-09T22:02:45.946Z,58.19
2018-05-09T22:05:12.132Z,58.01
2018-05-09T22:07:38.367Z,58.08
2018-05-09T22:10:04.677Z,58.15
2018-05-09T22:12:30.989Z,58.20
2018-05-09T22:14:58.238Z,58.37
2018-05-09T22:17:24.455Z,58.12
2018-05-09T22:19:50.694Z,58.17
2018-05-09T22:22:16.910Z,58.05
2018-05-09T22:24:43.163Z,58.02
2018-05-09T22:27:09.391Z,57.85
2018-05-09T22:29:35.646Z,58.15
2018-05-09T22:32:01.912Z,58.42
2018-05-09T22:34:28.136Z,58.25
2018-05-09T22:36:54.598Z,58.73
2018-05-09T22:39:20.823Z,59.59
2018-05-09T22:41:47.083Z,59.99
2018-05-09T22:44:13.303Z,59.62
2018-05-09T22:46:39.595Z,59.37
2018-05-09T22:49:05.824Z,59.18
2018-05-09T22:51:32.050Z,59.16
2018-05-09T22:53:58.328Z,59.13
2018-05-09T22:56:24.618Z,59.74
2018-05-09T22:58:50.862Z,60.03
2018-05-09T23:01:17.154Z,60.43
2018-05-09T23:03:43.717Z,59.92
2018-05-09T23:06:10.236Z,59.69
2018-05-09T23:08:36.819Z,60.13
2018-05-09T23:11:03.428Z,60.55
2018-05-09T23:13:29.919Z,60.96
2018-05-09T23:15:56.309Z,61.02
2018-05-09T23:18:22.850Z,61.09
2018-05-09T23:20:49.420Z,61.33
2018-05-09T23:23:15.962Z,61.81
2018-05-09T23:25:42.539Z,61.77
2018-05-09T23:28:09.108Z,62.07
2018-05-09T23:30:35.659Z,61.93
2018-05-09T23:33:02.221Z,61.36
2018-05-09T23:35:28.553Z,60.73
2018-05-09T23:37:55.161Z,60.16
2018-05-09T23:40:21.578Z,59.85
2018-05-09T23:42:47.835Z,59.57
2018-05-09T23:45:14.086Z,59.51
2018-05-09T23:47:40.480Z,59.72
2018-05-09T23:50:06.956Z,59.78
2018-05-09T23:52:33.292Z,59.89
2018-05-09T23:54:59.527Z,59.64
2018-05-09T23:57:25.746Z,59.51
2018-05-09T23:59:52.007Z,59.56
